createdAt,value
2023-05-13T00:00:58.891Z,100860.50
2023-05-13T00:03:26.658Z,100863.56
2023-05-13T00:05:54.301Z,100863.88
2023-05-13T00:08:21.846Z,100872.41
2023-05-13T00:10:49.264Z,100867.56
2023-05-13T00:13:16.670Z,100867.56
2023-05-13T00:15:44.140Z,100866.72
2023-05-13T00:18:12.268Z,100865.91
2023-05-13T00:20:40.001Z,100872.03
2023-05-13T00:23:07.962Z,100869.88
2023-05-13T00:25:35.500Z,100868.25
2023-05-13T00:28:03.032Z,100869.41
2023-05-13T00:30:31.081Z,100875.19
2023-05-13T00:32:58.950Z,100868.38
2023-05-13T00:35:26.504Z,100880.81
2023-05-13T00:37:53.847Z,100882.72
2023-05-13T00:40:23.262Z,100880.56
2023-05-13T00:42:51.270Z,100872.44
2023-05-13T00:45:18.831Z,100883.72
2023-05-13T00:47:46.385Z,100880.50
2023-05-13T00:50:14.436Z,100875.59
2023-05-13T00:52:42.491Z,100878.13
2023-05-13T00:55:10.444Z,100882.00
2023-05-13T00:57:38.175Z,100880.38
2023-05-13T01:00:06.249Z,100878.25
2023-05-13T01:02:55.737Z,100891.75
2023-05-13T01:05:28.450Z,100879.13
2023-05-13T01:08:22.389Z,100882.19
2023-05-13T01:10:52.009Z,100876.78
2023-05-13T01:13:28.882Z,100877.09
2023-05-13T01:16:18.162Z,100875.28
2023-05-13T01:18:49.207Z,100871.41
2023-05-13T01:21:16.802Z,100865.91
2023-05-13T01:23:44.318Z,100867.63
2023-05-13T01:26:14.229Z,100873.41
2023-05-13T01:28:41.874Z,100877.28
2023-05-13T01:31:11.078Z,100879.53
2023-05-13T01:33:39.030Z,100875.13
2023-05-13T01:36:07.566Z,100874.94
2023-05-13T01:38:37.068Z,100874.44
2023-05-13T01:41:04.906Z,100876.66
2023-05-13T01:43:32.595Z,100881.94
2023-05-13T01:46:01.529Z,100883.38
2023-05-13T01:48:29.531Z,100884.78
2023-05-13T01:50:58.426Z,100878.16
2023-05-13T01:53:28.328Z,100877.97
2023-05-13T01:55:58.085Z,100885.38
2023-05-13T01:58:25.634Z,100878.56
2023-05-13T02:00:57.703Z,100881.09
2023-05-13T02:03:25.596Z,100878.13
2023-05-13T02:05:53.457Z,100880.66
2023-05-13T02:08:22.259Z,100872.72
2023-05-13T02:11:00.453Z,100885.41
2023-05-13T02:13:31.826Z,100885.41
2023-05-13T02:15:59.415Z,100882.66
2023-05-13T02:18:27.196Z,100881.03
2023-05-13T02:20:54.941Z,100885.72
2023-05-13T02:23:22.679Z,100885.72
2023-05-13T02:25:51.370Z,100884.63
2023-05-13T02:28:19.308Z,100888.16
2023-05-13T02:30:46.934Z,100884.63
2023-05-13T02:33:15.129Z,100885.13
2023-05-13T02:35:43.074Z,100887.56
2023-05-13T02:38:10.676Z,100890.31
2023-05-13T02:40:38.423Z,100887.56
2023-05-13T02:43:06.419Z,100892.22
2023-05-13T02:45:47.187Z,100897.72
2023-05-13T02:48:15.094Z,100890.81
2023-05-13T02:50:42.629Z,100892.47
2023-05-13T02:53:11.149Z,100892.47
2023-05-13T02:55:43.420Z,100894.88
2023-05-13T02:58:11.011Z,100904.50
2023-05-13T03:00:38.367Z,100900.63
2023-05-13T03:03:05.995Z,100905.00
2023-05-13T03:05:35.944Z,100909.06
2023-05-13T03:08:03.691Z,100909.59
2023-05-13T03:10:31.193Z,100913.34
2023-05-13T03:12:58.568Z,100914.72
2023-05-13T03:15:25.906Z,100910.53
2023-05-13T03:17:55.573Z,100917.56
2023-05-13T03:20:23.321Z,100919.41
2023-05-13T03:22:50.968Z,100914.94
2023-05-13T03:25:18.446Z,100918.41
2023-05-13T03:27:51.018Z,100919.44
2023-05-13T03:30:21.317Z,100924.03
2023-05-13T03:32:57.981Z,100922.63
2023-05-13T03:35:25.578Z,100915.69
2023-05-13T03:37:55.821Z,100926.91
2023-05-13T03:40:23.492Z,100924.34
2023-05-13T03:42:51.777Z,100927.00
2023-05-13T03:45:21.284Z,100928.53
2023-05-13T03:47:54.028Z,100922.94
2023-05-13T03:50:24.739Z,100925.59
2023-05-13T03:52:53.135Z,100928.25
2023-05-13T03:55:22.191Z,100925.09
2023-05-13T03:57:51.053Z,100926.94
2023-05-13T04:00:21.441Z,100931.19
2023-05-13T04:02:49.704Z,100934.13
2023-05-13T04:05:19.808Z,100936.00
2023-05-13T04:07:47.311Z,100941.38
2023-05-13T04:10:15.682Z,100936.63
2023-05-13T04:12:43.801Z,100933.75
2023-05-13T04:15:11.426Z,100942.75
2023-05-13T04:17:38.910Z,100948.13
2023-05-13T04:20:07.794Z,100944.13
2023-05-13T04:22:35.834Z,100949.53
2023-05-13T04:25:03.326Z,100951.84
2023-05-13T04:27:31.273Z,100952.56
2023-05-13T04:30:08.984Z,100950.22
2023-05-13T04:32:39.304Z,100950.59
2023-05-13T04:35:09.251Z,100954.88
2023-05-13T04:37:37.620Z,100946.47
2023-05-13T04:40:08.599Z,100947.97
2023-05-13T04:42:36.248Z,100951.13
2023-05-13T04:45:04.230Z,100944.38
2023-05-13T04:47:35.297Z,100949.13
2023-05-13T04:50:02.976Z,100948.22
2023-05-13T04:52:32.128Z,100948.56
2023-05-13T04:54:59.584Z,100942.59
2023-05-13T04:57:28.533Z,100950.13
2023-05-13T04:59:56.667Z,100945.03
2023-05-13T05:02:24.389Z,100950.09
2023-05-13T05:04:51.929Z,100951.25
2023-05-13T05:07:20.098Z,100947.75
2023-05-13T05:09:49.875Z,100945.84
2023-05-13T05:12:17.558Z,100944.72
2023-05-13T05:14:47.253Z,100942.03
2023-05-13T05:17:18.535Z,100943.66
2023-05-13T05:19:46.727Z,100945.34
2023-05-13T05:22:15.205Z,100947.00
2023-05-13T05:24:42.744Z,100943.09
2023-05-13T05:27:10.420Z,100945.91
2023-05-13T05:29:37.932Z,100938.78
2023-05-13T05:32:06.198Z,100942.66
2023-05-13T05:34:33.847Z,100938.34
2023-05-13T05:37:01.392Z,100945.03
2023-05-13T05:39:29.580Z,100940.63
2023-05-13T05:41:57.072Z,100946.97
2023-05-13T05:44:24.609Z,100948.59
2023-05-13T05:46:55.412Z,100945.81
2023-05-13T05:49:23.895Z,100940.78
2023-05-13T05:51:51.763Z,100944.66
2023-05-13T05:54:20.586Z,100956.53
2023-05-13T05:56:48.630Z,100952.16
2023-05-13T05:59:16.145Z,100952.44
2023-05-13T06:01:43.680Z,100952.59
2023-05-13T06:04:11.328Z,100955.69
2023-05-13T06:06:40.455Z,100952.75
2023-05-13T06:09:08.158Z,100958.13
2023-05-13T06:11:35.881Z,100956.81
2023-05-13T06:14:04.179Z,100955.50
2023-05-13T06:16:31.998Z,100958.06
2023-05-13T06:19:00.980Z,100957.72
2023-05-13T06:21:28.725Z,100955.75
2023-05-13T06:23:56.476Z,100950.81
2023-05-13T06:26:23.915Z,100960.25
2023-05-13T06:28:51.337Z,100960.50
2023-05-13T06:31:19.017Z,100950.72
2023-05-13T06:33:47.238Z,100953.78
2023-05-13T06:36:14.735Z,100958.66
2023-05-13T06:38:42.354Z,100954.22
2023-05-13T06:41:09.830Z,100959.38
2023-05-13T06:43:39.448Z,100951.81
2023-05-13T06:46:16.614Z,100957.69
2023-05-13T06:48:44.326Z,100956.31
2023-05-13T06:51:11.803Z,100957.28
2023-05-13T06:53:39.338Z,100948.75
2023-05-13T06:56:07.337Z,100961.63
2023-05-13T06:58:34.938Z,100953.44
2023-05-13T07:01:03.001Z,100957.16
2023-05-13T07:03:30.940Z,100948.75
2023-05-13T07:05:58.599Z,100958.13
2023-05-13T07:08:26.083Z,100954.03
2023-05-13T07:10:53.817Z,100955.75
2023-05-13T07:13:21.326Z,100954.53
2023-05-13T07:15:48.851Z,100952.47
2023-05-13T07:18:16.688Z,100954.47
2023-05-13T07:20:44.295Z,100957.22
2023-05-13T07:23:11.746Z,100949.28
2023-05-13T07:25:40.044Z,100945.22
2023-05-13T07:28:10.002Z,100947.91
2023-05-13T07:30:40.323Z,100946.63
2023-05-13T07:33:07.995Z,100941.31
2023-05-13T07:35:35.582Z,100935.19
2023-05-13T07:38:04.175Z,100936.72
2023-05-13T07:40:32.409Z,100926.97
2023-05-13T07:42:59.905Z,100932.78
2023-05-13T07:45:27.892Z,100935.06
2023-05-13T07:47:55.398Z,100923.28
2023-05-13T07:50:22.933Z,100930.22
2023-05-13T07:52:51.845Z,100928.13
2023-05-13T07:55:19.690Z,100925.56
2023-05-13T07:57:47.279Z,100923.00
2023-05-13T08:00:15.787Z,100920.69
2023-05-13T08:02:44.002Z,100923.22
2023-05-13T08:05:12.432Z,100929.88
2023-05-13T08:07:40.337Z,100918.97
2023-05-13T08:10:08.308Z,100924.28
2023-05-13T08:12:35.978Z,100922.41
2023-05-13T08:15:04.755Z,100908.25
2023-05-13T08:17:33.148Z,100916.34
2023-05-13T08:20:04.161Z,100907.03
2023-05-13T08:22:32.162Z,100908.88
2023-05-13T08:25:01.438Z,100911.41
2023-05-13T08:27:29.233Z,100910.88
2023-05-13T08:29:56.736Z,100902.09
2023-05-13T08:32:24.243Z,100893.47
2023-05-13T08:34:51.749Z,100902.47
2023-05-13T08:37:19.336Z,100894.03
2023-05-13T08:39:47.166Z,100883.53
2023-05-13T08:42:19.334Z,100885.22
2023-05-13T08:44:46.840Z,100889.72
2023-05-13T08:47:46.921Z,100887.47
2023-05-13T08:50:14.874Z,100883.69
2023-05-13T08:52:43.104Z,100882.69
2023-05-13T08:55:10.605Z,100880.09
2023-05-13T08:57:39.506Z,100875.31
2023-05-13T09:00:07.760Z,100870.66
2023-05-13T09:02:35.951Z,100873.19
2023-05-13T09:05:07.110Z,100872.63
2023-05-13T09:07:37.369Z,100873.72
2023-05-13T09:10:06.259Z,100860.66
2023-05-13T09:12:53.780Z,100859.66
2023-05-13T09:15:23.366Z,100856.69
2023-05-13T09:17:53.161Z,100848.34
2023-05-13T09:20:21.377Z,100850.78
2023-05-13T09:22:50.915Z,100850.06
2023-05-13T09:25:20.364Z,100848.50
2023-05-13T09:27:50.471Z,100837.53
2023-05-13T09:30:17.994Z,100835.34
2023-05-13T09:32:45.798Z,100836.38
2023-05-13T09:35:17.180Z,100830.34
2023-05-13T09:37:48.454Z,100818.34
2023-05-13T09:40:17.259Z,100815.38
2023-05-13T09:42:45.402Z,100823.16
2023-05-13T09:45:14.102Z,100814.91
2023-05-13T09:47:42.563Z,100823.47
2023-05-13T09:50:11.815Z,100816.34
2023-05-13T09:52:40.574Z,100811.22
2023-05-13T09:55:09.843Z,100811.78
2023-05-13T09:57:39.237Z,100808.53
2023-05-13T10:00:10.992Z,100806.06
2023-05-13T10:02:43.625Z,100801.41
2023-05-13T10:05:11.298Z,100795.06
2023-05-13T10:07:39.440Z,100805.63
2023-05-13T10:10:07.782Z,100793.34
2023-05-13T10:12:36.441Z,100786.25
2023-05-13T10:15:05.535Z,100793.19
2023-05-13T10:17:33.384Z,100787.66
2023-05-13T10:20:01.820Z,100791.41
2023-05-13T10:22:30.813Z,100789.06
2023-05-13T10:24:59.084Z,100790.66
2023-05-13T10:27:28.462Z,100786.81
2023-05-13T10:29:57.053Z,100786.50
2023-05-13T10:32:25.538Z,100786.06
2023-05-13T10:35:00.476Z,100785.63
2023-05-13T10:37:27.919Z,100784.94
2023-05-13T10:40:01.467Z,100781.88
2023-05-13T10:42:43.126Z,100786.72
2023-05-13T10:45:11.000Z,100791.50
2023-05-13T10:47:39.232Z,100793.09
2023-05-13T10:50:22.279Z,100787.19
2023-05-13T10:52:50.212Z,100787.19
2023-05-13T10:55:19.305Z,100779.41
2023-05-13T10:58:11.159Z,100781.88
2023-05-13T11:00:43.250Z,100782.72
2023-05-13T11:03:14.419Z,100769.16
2023-05-13T11:05:44.640Z,100770.47
2023-05-13T11:08:12.102Z,100775.75
2023-05-13T11:10:39.600Z,100771.03
2023-05-13T11:13:13.548Z,100766.34
2023-05-13T11:15:54.273Z,100758.66
2023-05-13T11:18:29.635Z,100751.25
2023-05-13T11:21:05.084Z,100750.66
2023-05-13T11:23:49.808Z,100751.63
2023-05-13T11:26:17.347Z,100753.25
2023-05-13T11:28:59.909Z,100746.47
2023-05-13T11:31:28.640Z,100748.16
2023-05-13T11:34:09.836Z,100753.34
2023-05-13T11:36:38.781Z,100748.50
2023-05-13T11:39:14.062Z,100745.34
2023-05-13T11:41:50.821Z,100745.00
2023-05-13T11:44:20.357Z,100742.28
2023-05-13T11:46:55.719Z,100740.97
2023-05-13T11:49:44.085Z,100739.41
2023-05-13T11:52:16.055Z,100733.78
2023-05-13T11:54:53.741Z,100742.94
2023-05-13T11:57:28.106Z,100736.19
2023-05-13T12:00:00.425Z,100729.88
2023-05-13T12:02:29.737Z,100734.38
2023-05-13T12:05:02.038Z,100722.91
2023-05-13T12:07:29.684Z,100726.16
2023-05-13T12:09:58.470Z,100712.19
2023-05-13T12:12:28.293Z,100713.84
2023-05-13T12:14:56.279Z,100720.94
2023-05-13T12:17:25.027Z,100718.44
2023-05-13T12:20:05.828Z,100712.75
2023-05-13T12:22:34.473Z,100721.47
2023-05-13T12:25:36.398Z,100720.66
2023-05-13T12:28:10.796Z,100723.78
2023-05-13T12:30:39.645Z,100718.16
2023-05-13T12:33:15.099Z,100726.06
2023-05-13T12:35:43.157Z,100712.09
2023-05-13T12:38:17.873Z,100717.78
2023-05-13T12:40:48.640Z,100713.03
2023-05-13T12:43:17.239Z,100715.91
2023-05-13T12:45:45.702Z,100709.53
2023-05-13T12:48:14.502Z,100711.91
2023-05-13T12:50:42.100Z,100717.59
2023-05-13T12:53:09.668Z,100703.66
2023-05-13T12:55:40.273Z,100708.09
2023-05-13T12:58:11.015Z,100700.97
2023-05-13T13:00:39.022Z,100694.22
2023-05-13T13:03:08.011Z,100696.22
2023-05-13T13:05:36.206Z,100701.88
2023-05-13T13:08:05.479Z,100695.50
2023-05-13T13:10:33.226Z,100697.06
2023-05-13T13:13:01.552Z,100699.84
2023-05-13T13:15:29.207Z,100697.91
2023-05-13T13:17:56.792Z,100686.72
2023-05-13T13:20:24.413Z,100690.38
2023-05-13T13:22:53.781Z,100695.25
2023-05-13T13:25:22.279Z,100694.88
2023-05-13T13:27:50.324Z,100686.50
2023-05-13T13:30:17.851Z,100689.69
2023-05-13T13:32:45.856Z,100682.84
2023-05-13T13:35:13.452Z,100680.41
2023-05-13T13:37:41.081Z,100688.34
2023-05-13T13:40:09.244Z,100690.69
2023-05-13T13:42:44.116Z,100687.41
2023-05-13T13:45:13.714Z,100684.44
2023-05-13T13:47:41.573Z,100687.97
2023-05-13T13:50:09.516Z,100688.66
2023-05-13T13:52:37.979Z,100684.59
2023-05-13T13:55:06.435Z,100693.72
2023-05-13T13:57:34.019Z,100690.91
2023-05-13T14:00:01.531Z,100685.25
2023-05-13T14:02:29.832Z,100688.41
2023-05-13T14:04:57.860Z,100691.53
2023-05-13T14:07:25.483Z,100689.56
2023-05-13T14:09:52.948Z,100684.41
2023-05-13T14:12:20.619Z,100686.75
2023-05-13T14:14:48.248Z,100690.69
2023-05-13T14:17:15.786Z,100690.59
2023-05-13T14:19:43.336Z,100684.97
2023-05-13T14:22:10.799Z,100681.72
2023-05-13T14:24:38.359Z,100683.38
2023-05-13T14:27:06.070Z,100682.56
2023-05-13T14:29:33.633Z,100682.53
2023-05-13T14:32:03.152Z,100678.63
2023-05-13T14:34:30.744Z,100682.66
2023-05-13T14:36:58.346Z,100682.72
2023-05-13T14:39:25.846Z,100672.34
2023-05-13T14:41:53.420Z,100677.19
2023-05-13T14:44:21.097Z,100682.88
2023-05-13T14:46:50.817Z,100682.91
2023-05-13T14:49:18.319Z,100678.16
2023-05-13T14:51:45.878Z,100683.81
2023-05-13T14:54:13.465Z,100669.41
2023-05-13T14:56:41.659Z,100675.88
2023-05-13T14:59:09.727Z,100676.72
2023-05-13T15:01:38.369Z,100674.34
2023-05-13T15:04:06.213Z,100674.28
2023-05-13T15:06:36.846Z,100670.28
2023-05-13T15:09:05.764Z,100674.28
2023-05-13T15:11:33.480Z,100677.41
2023-05-13T15:14:01.891Z,100672.56
2023-05-13T15:16:29.527Z,100669.38
2023-05-13T15:18:57.320Z,100672.53
2023-05-13T15:21:24.780Z,100677.28
2023-05-13T15:23:52.227Z,100679.63
2023-05-13T15:26:19.867Z,100673.25
2023-05-13T15:28:47.608Z,100672.78
2023-05-13T15:31:15.152Z,100679.16
2023-05-13T15:33:44.554Z,100689.94
2023-05-13T15:36:12.783Z,100676.34
2023-05-13T15:38:40.816Z,100673.50
2023-05-13T15:41:08.630Z,100671.47
2023-05-13T15:43:36.534Z,100673.81
2023-05-13T15:46:04.722Z,100677.03
2023-05-13T15:48:33.083Z,100675.38
2023-05-13T15:51:03.497Z,100674.13
2023-05-13T15:53:31.455Z,100671.25
2023-05-13T15:55:58.925Z,100675.97
2023-05-13T15:58:26.797Z,100667.19
2023-05-13T16:00:54.305Z,100666.75
2023-05-13T16:03:22.321Z,100671.13
2023-05-13T16:05:49.877Z,100672.25
2023-05-13T16:08:18.773Z,100677.00
2023-05-13T16:10:47.092Z,100679.69
2023-05-13T16:13:14.659Z,100675.63
2023-05-13T16:15:42.240Z,100675.97
2023-05-13T16:18:09.934Z,100681.09
2023-05-13T16:20:37.498Z,100684.22
2023-05-13T16:23:05.190Z,100686.94
2023-05-13T16:25:33.929Z,100682.88
2023-05-13T16:28:01.606Z,100686.44
2023-05-13T16:30:29.436Z,100685.16
2023-05-13T16:32:57.529Z,100679.03
2023-05-13T16:35:25.057Z,100685.25
2023-05-13T16:37:52.744Z,100685.88
2023-05-13T16:40:20.596Z,100685.69
2023-05-13T16:42:48.192Z,100695.88
2023-05-13T16:45:15.746Z,100693.28
2023-05-13T16:47:43.604Z,100707.41
2023-05-13T16:50:11.210Z,100706.81
2023-05-13T16:52:38.836Z,100708.91
2023-05-13T16:55:06.984Z,100705.16
2023-05-13T16:57:35.095Z,100706.47
2023-05-13T17:00:02.656Z,100704.66
2023-05-13T17:02:30.798Z,100709.22
2023-05-13T17:04:58.279Z,100701.81
2023-05-13T17:07:25.745Z,100707.88
2023-05-13T17:09:53.293Z,100704.84
2023-05-13T17:12:21.891Z,100710.56
2023-05-13T17:14:49.359Z,100709.50
2023-05-13T17:17:16.875Z,100707.63
2023-05-13T17:19:44.563Z,100713.78
2023-05-13T17:22:12.494Z,100708.31
2023-05-13T17:24:40.691Z,100715.59
2023-05-13T17:27:08.169Z,100714.59
2023-05-13T17:29:35.694Z,100713.50
2023-05-13T17:32:03.359Z,100715.66
2023-05-13T17:34:30.971Z,100713.06
2023-05-13T17:36:58.810Z,100718.34
2023-05-13T17:39:28.408Z,100725.66
2023-05-13T17:41:55.912Z,100724.22
2023-05-13T17:44:24.133Z,100725.19
2023-05-13T17:46:51.872Z,100730.94
2023-05-13T17:49:19.766Z,100727.59
2023-05-13T17:51:47.287Z,100732.91
2023-05-13T17:54:15.048Z,100729.56
2023-05-13T17:56:42.670Z,100730.16
2023-05-13T17:59:10.359Z,100733.19
2023-05-13T18:01:38.577Z,100745.72
2023-05-13T18:04:06.393Z,100740.75
2023-05-13T18:06:34.172Z,100735.81
2023-05-13T18:09:02.638Z,100741.97
2023-05-13T18:11:30.218Z,100740.22
2023-05-13T18:13:57.832Z,100743.22
2023-05-13T18:16:25.465Z,100743.81
2023-05-13T18:18:53.223Z,100741.63
2023-05-13T18:21:23.006Z,100742.69
2023-05-13T18:23:50.527Z,100745.34
2023-05-13T18:26:18.690Z,100749.53
2023-05-13T18:28:46.952Z,100746.16
2023-05-13T18:31:14.777Z,100748.34
2023-05-13T18:33:42.332Z,100748.22
2023-05-13T18:36:10.353Z,100744.88
2023-05-13T18:38:39.621Z,100748.69
2023-05-13T18:41:07.177Z,100746.94
2023-05-13T18:43:34.717Z,100744.38
2023-05-13T18:46:02.591Z,100740.69
2023-05-13T18:48:30.495Z,100746.47
2023-05-13T18:50:57.984Z,100745.09
2023-05-13T18:53:25.477Z,100745.31
2023-05-13T18:55:53.351Z,100738.84
2023-05-13T18:58:21.310Z,100739.50
2023-05-13T19:00:49.179Z,100741.34
2023-05-13T19:03:17.248Z,100744.34
2023-05-13T19:05:46.257Z,100750.13
2023-05-13T19:08:14.276Z,100758.75
2023-05-13T19:10:42.053Z,100747.56
2023-05-13T19:13:09.638Z,100741.41
2023-05-13T19:15:37.186Z,100746.38
2023-05-13T19:18:04.767Z,100743.81
2023-05-13T19:20:32.432Z,100738.97
2023-05-13T19:23:00.214Z,100738.00
2023-05-13T19:25:28.130Z,100742.72
2023-05-13T19:27:56.370Z,100750.91
2023-05-13T19:30:24.199Z,100750.44
2023-05-13T19:32:52.890Z,100743.94
2023-05-13T19:35:20.520Z,100737.47
2023-05-13T19:37:48.119Z,100745.66
2023-05-13T19:40:15.726Z,100745.53
2023-05-13T19:42:43.261Z,100744.09
2023-05-13T19:45:11.152Z,100742.03
2023-05-13T19:47:39.596Z,100745.47
2023-05-13T19:50:07.405Z,100736.69
2023-05-13T19:52:35.283Z,100737.69
2023-05-13T19:55:03.267Z,100739.19
2023-05-13T19:57:31.250Z,100728.78
2023-05-13T19:59:58.882Z,100730.28
2023-05-13T20:02:26.917Z,100726.56
2023-05-13T20:04:54.507Z,100726.44
2023-05-13T20:07:22.010Z,100726.31
2023-05-13T20:09:49.643Z,100724.66
2023-05-13T20:12:17.120Z,100717.38
2023-05-13T20:14:48.877Z,100714.16
2023-05-13T20:17:18.241Z,100721.97
2023-05-13T20:19:47.427Z,100712.38
2023-05-13T20:22:16.534Z,100715.81
2023-05-13T20:24:48.055Z,100716.16
2023-05-13T20:27:16.140Z,100724.00
2023-05-13T20:29:44.710Z,100715.22
2023-05-13T20:32:12.288Z,100719.81
2023-05-13T20:34:41.420Z,100719.00
2023-05-13T20:37:09.003Z,100722.09
2023-05-13T20:39:36.912Z,100716.88
2023-05-13T20:42:04.550Z,100718.03
2023-05-13T20:44:33.013Z,100712.03
2023-05-13T20:47:01.034Z,100711.88
2023-05-13T20:49:28.576Z,100716.97
2023-05-13T20:52:01.284Z,100710.91
2023-05-13T20:54:29.137Z,100718.28
2023-05-13T20:56:56.722Z,100716.63
2023-05-13T20:59:24.131Z,100718.94
2023-05-13T21:01:51.684Z,100725.13
2023-05-13T21:04:19.559Z,100723.50
2023-05-13T21:06:47.622Z,100717.03
2023-05-13T21:09:15.142Z,100724.03
2023-05-13T21:11:43.215Z,100729.91
2023-05-13T21:14:10.648Z,100721.59
2023-05-13T21:16:38.094Z,100717.84
2023-05-13T21:19:05.683Z,100712.44
2023-05-13T21:21:33.450Z,100716.38
2023-05-13T21:24:00.989Z,100711.50
2023-05-13T21:26:28.521Z,100711.03
2023-05-13T21:28:55.953Z,100718.38
2023-05-13T21:31:23.804Z,100717.56
2023-05-13T21:33:51.440Z,100707.16
2023-05-13T21:36:19.134Z,100716.47
2023-05-13T21:38:46.717Z,100708.50
2023-05-13T21:41:14.339Z,100713.53
2023-05-13T21:43:41.987Z,100708.34
2023-05-13T21:46:09.601Z,100710.97
2023-05-13T21:48:37.328Z,100711.16
2023-05-13T21:51:04.824Z,100707.91
2023-05-13T21:53:33.970Z,100709.41
2023-05-13T21:56:02.011Z,100706.13
2023-05-13T21:58:29.608Z,100703.69
2023-05-13T22:00:57.174Z,100702.09
2023-05-13T22:03:24.745Z,100706.81
2023-05-13T22:05:52.297Z,100712.69
2023-05-13T22:08:21.189Z,100704.22
2023-05-13T22:10:48.715Z,100697.06
2023-05-13T22:13:17.166Z,100704.91
2023-05-13T22:15:44.730Z,100711.06
2023-05-13T22:18:12.725Z,100702.78
2023-05-13T22:20:40.374Z,100707.16
2023-05-13T22:23:07.896Z,100696.44
2023-05-13T22:25:35.429Z,100697.91
2023-05-13T22:28:03.035Z,100697.44
2023-05-13T22:30:31.024Z,100693.41
2023-05-13T22:32:59.177Z,100696.03
2023-05-13T22:35:28.905Z,100689.66
2023-05-13T22:37:56.564Z,100682.84
2023-05-13T22:40:24.280Z,100685.13
2023-05-13T22:42:52.380Z,100685.47
2023-05-13T22:45:20.014Z,100682.53
2023-05-13T22:47:48.134Z,100679.31
2023-05-13T22:50:15.815Z,100678.34
2023-05-13T22:52:43.365Z,100681.44
2023-05-13T22:55:11.086Z,100685.69
2023-05-13T22:57:39.462Z,100690.22
2023-05-13T23:00:07.830Z,100681.81
2023-05-13T23:02:35.551Z,100684.38
2023-05-13T23:05:03.405Z,100687.16
2023-05-13T23:07:30.980Z,100680.84
2023-05-13T23:09:58.358Z,100681.63
2023-05-13T23:12:26.532Z,100681.63
2023-05-13T23:14:53.978Z,100683.28
2023-05-13T23:17:21.536Z,100678.88
2023-05-13T23:19:48.900Z,100687.16
2023-05-13T23:22:16.347Z,100683.28
2023-05-13T23:24:43.685Z,100678.22
2023-05-13T23:27:11.785Z,100676.28
2023-05-13T23:29:39.218Z,100675.00
2023-05-13T23:32:07.034Z,100667.81
2023-05-13T23:34:34.864Z,100665.06
2023-05-13T23:37:02.376Z,100670.59
2023-05-13T23:39:29.809Z,100678.38
2023-05-13T23:41:57.325Z,100675.94
2023-05-13T23:44:24.736Z,100678.56
2023-05-13T23:46:52.175Z,100680.16
2023-05-13T23:49:19.573Z,100682.91
2023-05-13T23:51:47.052Z,100688.44
2023-05-13T23:54:14.384Z,100688.63
2023-05-13T23:56:41.896Z,100694.47
2023-05-13T23:59:09.261Z,100688.13
